Time;durP1;ratioP1;P1;durP2;ratioP2;P2;SDS_P1;SDS_P2;PMS_P1;PMS_P2;Temp;Humidity;BMP_temperature;BMP_pressure;BME280_temperature;BME280_humidity;BME280_pressure;Samples;Min_cycle;Max_cycle;Signal;HPM_P1;HPM_P2
2022/11/02 00:02:07;;;;;;;8.93;2.45;;;;;;;13.02;82.17;101304.50;5095165;28;20054;-66
2022/11/02 00:04:33;;;;;;;11.75;1.95;;;;;;;13.06;82.13;101308.41;5095144;28;20446;-66
2022/11/02 00:06:58;;;;;;;7.50;1.65;;;;;;;13.08;81.97;101306.34;5095049;28;20027;-66
2022/11/02 00:09:23;;;;;;;6.40;2.22;;;;;;;13.09;81.69;101308.00;5095077;28;20031;-66
2022/11/02 00:11:49;;;;;;;9.02;2.03;;;;;;;13.11;81.91;101305.13;5093445;28;20386;-66
2022/11/02 00:14:14;;;;;;;8.10;2.80;;;;;;;13.10;82.11;101301.63;5091350;28;20415;-66
2022/11/02 00:16:40;;;;;;;11.82;2.45;;;;;;;13.15;81.60;101301.84;5091769;28;20063;-66
2022/11/02 00:19:07;;;;;;;6.82;2.08;;;;;;;13.18;81.85;101305.13;5091793;28;20027;-66
2022/11/02 00:21:34;;;;;;;15.05;3.13;;;;;;;13.18;81.29;101305.97;5091563;28;20081;-66
2022/11/02 00:24:01;;;;;;;9.50;1.40;;;;;;;13.18;80.64;101313.16;5091589;28;21016;-66
2022/11/02 00:26:27;;;;;;;9.82;2.97;;;;;;;13.15;80.63;101307.22;5091636;28;20056;-66
2022/11/02 00:28:54;;;;;;;11.75;1.90;;;;;;;13.20;80.81;101303.09;5091551;28;20031;-66
2022/11/02 00:31:19;;;;;;;10.18;2.40;;;;;;;13.20;81.75;101311.94;5091568;28;20032;-66
2022/11/02 00:33:44;;;;;;;8.48;2.13;;;;;;;13.20;81.07;101305.75;5076626;28;20154;-66
2022/11/02 00:36:10;;;;;;;5.13;1.80;;;;;;;13.28;80.12;101297.56;5091327;28;20101;-66
2022/11/02 00:38:35;;;;;;;6.93;1.73;;;;;;;13.25;80.15;101301.44;5091756;28;20036;-66
2022/11/02 00:41:00;;;;;;;7.47;1.40;;;;;;;13.20;80.16;101300.41;5091586;28;20024;-66
2022/11/02 00:43:26;;;;;;;8.00;2.13;;;;;;;13.23;79.81;101300.00;5091225;28;20050;-66
2022/11/02 00:45:51;;;;;;;7.82;2.25;;;;;;;13.20;79.84;101305.75;5091591;28;20020;-66
2022/11/02 00:48:17;;;;;;;5.38;2.67;;;;;;;13.23;79.45;101300.84;5073237;28;20039;-66
2022/11/02 00:50:42;;;;;;;14.80;2.22;;;;;;;13.26;79.44;101299.63;5091508;28;20035;-66
2022/11/02 00:53:07;;;;;;;11.85;2.30;;;;;;;13.25;79.55;101306.81;5091430;28;20028;-66
2022/11/02 00:55:32;;;;;;;5.18;1.45;;;;;;;13.26;79.62;101308.50;5091303;28;20036;-66
2022/11/02 00:57:58;;;;;;;9.32;2.10;;;;;;;13.26;79.73;101310.31;5091312;28;20051;-66
2022/11/02 01:00:23;;;;;;;6.25;1.25;;;;;;;13.27;79.44;101312.00;5073180;28;20123;-66
2022/11/02 01:02:48;;;;;;;2.55;1.20;;;;;;;13.25;79.14;101327.41;5091331;28;20036;-66
2022/11/02 01:05:14;;;;;;;10.65;2.40;;;;;;;13.21;77.93;101310.09;5091159;28;20418;-66
2022/11/02 01:07:39;;;;;;;4.68;1.67;;;;;;;13.28;77.49;101327.03;5091292;28;20032;-66
2022/11/02 01:10:06;;;;;;;6.10;1.67;;;;;;;13.26;78.11;101334.44;5091302;28;20034;-66
2022/11/02 01:12:32;;;;;;;6.07;1.77;;;;;;;13.24;77.37;101329.28;5091062;28;20036;-66
2022/11/02 01:14:57;;;;;;;6.57;1.90;;;;;;;13.19;77.45;101331.72;5091187;28;20352;-66
2022/11/02 01:17:22;;;;;;;12.52;1.63;;;;;;;13.14;77.59;101332.31;5091077;28;20078;-66
2022/11/02 01:19:49;;;;;;;6.38;2.03;;;;;;;13.10;77.60;101332.94;5091062;28;20032;-66
2022/11/02 01:22:15;;;;;;;10.20;2.78;;;;;;;13.02;78.04;101343.81;5090870;28;20455;-66
2022/11/02 01:24:40;;;;;;;7.68;1.75;;;;;;;13.07;77.78;101352.06;5090556;28;20079;-66
2022/11/02 01:27:06;;;;;;;1.80;1.17;;;;;;;13.00;78.12;101345.91;5090803;28;20031;-66
2022/11/02 01:29:31;;;;;;;4.75;1.17;;;;;;;12.98;78.80;101359.47;5090938;28;20036;-66
2022/11/02 01:31:56;;;;;;;6.35;1.65;;;;;;;12.95;78.54;101351.84;5090780;28;20158;-66
2022/11/02 01:34:22;;;;;;;6.20;1.35;;;;;;;12.92;77.96;101342.34;5090547;28;20084;-66
2022/11/02 01:36:47;;;;;;;5.65;1.42;;;;;;;12.88;77.04;101351.81;5090028;28;20048;-66
2022/11/02 01:39:14;;;;;;;6.85;1.20;;;;;;;12.86;76.62;101342.31;5089773;28;20034;-66
2022/11/02 01:41:40;;;;;;;6.22;1.88;;;;;;;12.82;77.19;101354.47;5089960;28;20028;-66
2022/11/02 01:44:31;;;;;;;4.68;1.52;;;;;;;12.79;76.81;101354.88;5089680;28;20563;-66
2022/11/02 01:47:07;;;;;;;6.63;1.60;;;;;;;12.80;76.67;101364.53;5089197;28;20048;-66
2022/11/02 01:49:36;;;;;;;6.45;1.75;;;;;;;12.73;77.26;101361.81;5089256;28;20020;-66
2022/11/02 01:52:15;;;;;;;5.55;1.85;;;;;;;12.62;76.87;101357.84;5089530;28;20039;-66
2022/11/02 01:54:47;;;;;;;4.55;1.33;;;;;;;12.68;76.63;101375.81;5071870;28;20039;-66
2022/11/02 01:57:14;;;;;;;;;;;;;;;12.69;76.76;101373.97;5090183;28;20127;-66
2022/11/02 01:59:48;;;;;;;7.55;1.15;;;;;;;12.62;76.48;101371.22;5089540;28;19935;-66
2022/11/02 02:02:21;;;;;;;5.55;1.40;;;;;;;12.60;77.21;101375.97;5089704;28;20862;-66
2022/11/02 02:04:52;;;;;;;7.88;1.73;;;;;;;12.53;77.28;101383.13;5089515;28;20528;-66
2022/11/02 02:07:18;;;;;;;7.33;1.40;;;;;;;12.50;77.16;101373.66;5089547;28;20063;-66
2022/11/02 02:09:44;;;;;;;4.13;1.30;;;;;;;12.51;77.58;101377.13;5089186;28;20036;-66
2022/11/02 02:12:11;;;;;;;9.27;1.80;;;;;;;12.53;77.01;101377.78;5089212;28;20058;-66
2022/11/02 02:14:36;;;;;;;5.75;1.15;;;;;;;12.55;76.94;101378.41;5089566;28;20089;-66
2022/11/02 02:17:10;;;;;;;5.07;1.10;;;;;;;12.60;76.87;101375.97;5089137;28;20054;-66
2022/11/02 02:19:54;;;;;;;8.20;2.65;;;;;;;12.65;77.36;101384.25;5089329;28;20032;-66
2022/11/02 02:22:28;;;;;;;4.68;1.10;;;;;;;12.65;77.28;101378.88;5089065;28;20024;-66
2022/11/02 02:24:54;;;;;;;6.85;2.00;;;;;;;12.65;77.31;101375.34;5089921;28;20471;-66
2022/11/02 02:27:19;;;;;;;2.63;0.90;;;;;;;12.62;77.41;101365.88;5090609;28;20099;-66
2022/11/02 02:30:01;;;;;;;8.17;1.23;;;;;;;12.56;77.49;101371.22;5089039;28;20274;-66
2022/11/02 02:32:39;;;;;;;9.18;2.17;;;;;;;12.49;77.46;101377.31;5089050;28;20292;-66
2022/11/02 02:35:11;;;;;;;2.97;1.08;;;;;;;12.43;77.66;101388.81;5088128;28;20400;-66
2022/11/02 02:37:53;;;;;;;12.10;2.53;;;;;;;12.37;78.37;101386.13;5088184;28;20050;-66
2022/11/02 02:40:24;;;;;;;7.70;1.48;;;;;;;12.29;79.06;101387.09;5088957;28;20032;-66
2022/11/02 02:42:56;;;;;;;11.00;2.33;;;;;;;12.21;79.19;101377.34;5088987;28;20043;-66
2022/11/02 02:45:43;;;;;;;21.23;2.72;;;;;;;12.16;79.47;101371.78;5088341;28;20023;-69
2022/11/02 02:48:22;;;;;;;11.13;2.63;;;;;;;12.18;80.13;101387.59;5088403;28;20116;-69
2022/11/02 02:50:58;;;;;;;3.35;1.38;;;;;;;12.15;79.88;101380.78;5088397;28;20036;-69
2022/11/02 02:53:30;;;;;;;4.97;1.55;;;;;;;12.16;79.93;101390.50;5089002;28;20034;-69
2022/11/02 02:55:59;;;;;;;8.60;2.03;;;;;;;12.10;79.88;101388.56;5071103;28;20028;-69
2022/11/02 02:58:29;;;;;;;8.80;1.50;;;;;;;12.11;79.80;101389.41;5088501;28;20031;-69
2022/11/02 03:00:55;;;;;;;4.60;2.08;;;;;;;12.08;80.33;101390.63;5088616;28;20034;-69
2022/11/02 03:03:24;;;;;;;9.90;1.58;;;;;;;12.07;80.54;101397.81;5088472;28;20161;-69
2022/11/02 03:06:19;;;;;;;6.50;1.95;;;;;;;12.04;80.43;101390.16;5088828;28;20023;-69
2022/11/02 03:09:07;;;;;;;5.18;1.65;;;;;;;12.01;80.36;101392.41;5088956;28;20106;-69
2022/11/02 03:11:33;;;;;;;5.35;1.40;;;;;;;12.00;80.58;101385.41;5088474;28;20141;-69
2022/11/02 03:14:07;;;;;;;5.35;2.30;;;;;;;11.96;80.81;101384.97;5088365;28;20049;-70
2022/11/02 03:16:58;;;;;;;7.28;1.30;;;;;;;11.91;80.37;101387.38;5088410;28;20034;-69
2022/11/02 03:19:30;;;;;;;10.82;2.25;;;;;;;11.91;80.60;101389.25;5088635;28;20028;-69
2022/11/02 03:22:05;;;;;;;9.35;1.52;;;;;;;11.92;80.50;101389.06;5088339;28;20044;-69
2022/11/02 03:24:42;;;;;;;5.25;1.25;;;;;;;11.93;80.43;101396.03;5068764;28;20032;-69
2022/11/02 03:27:42;;;;;;;7.75;1.88;;;;;;;11.95;80.11;101407.38;5069368;28;20016;-69
2022/11/02 03:30:16;;;;;;;7.97;2.20;;;;;;;11.96;79.75;101403.66;5056309;28;20048;-69
2022/11/02 03:33:04;;;;;;;5.97;2.03;;;;;;;11.96;79.86;101409.03;5069151;28;20395;-69
2022/11/02 03:35:33;;;;;;;6.40;2.13;;;;;;;11.97;79.97;101417.84;5088584;28;20052;-69
2022/11/02 03:38:06;;;;;;;7.53;1.80;;;;;;;12.02;79.36;101415.44;5089144;28;20494;-69
2022/11/02 03:40:37;;;;;;;10.30;3.28;;;;;;;12.02;79.50;101424.28;5088832;28;20039;-69
2022/11/02 03:43:04;;;;;;;9.20;1.60;;;;;;;12.02;78.91;101421.59;5089000;28;20074;-69
2022/11/02 03:45:40;;;;;;;14.07;1.58;;;;;;;12.04;79.00;101416.91;5088640;28;20069;-69
2022/11/02 03:48:08;;;;;;;7.88;1.55;;;;;;;12.04;78.94;101410.75;5092102;28;20023;-69
2022/11/02 03:50:37;;;;;;;7.60;2.03;;;;;;;12.02;78.93;101420.78;5092429;28;20024;-69
2022/11/02 03:53:16;;;;;;;16.85;3.28;;;;;;;12.01;78.87;101424.50;5092146;28;20494;-69
2022/11/02 03:55:50;;;;;;;6.93;1.98;;;;;;;12.00;79.32;101422.84;5092643;28;20111;-69
2022/11/02 03:58:15;;;;;;;15.65;3.13;;;;;;;11.97;78.98;101423.22;5092657;28;20043;-69
2022/11/02 04:00:54;;;;;;;15.55;3.08;;;;;;;11.94;79.26;101423.59;5092209;28;20123;-69
2022/11/02 04:03:22;;;;;;;13.23;3.25;;;;;;;11.94;79.33;101436.97;5092500;28;20497;-69
2022/11/02 04:05:47;;;;;;;8.68;1.80;;;;;;;11.90;79.42;101433.84;5092444;28;20099;-69
2022/11/02 04:08:21;;;;;;;12.43;2.25;;;;;;;11.90;79.64;101435.72;5092117;28;20132;-69
2022/11/02 04:16:20;;;;;;;6.57;1.90;;;;;;;11.86;80.12;101453.94;5092152;28;20165;-69
2022/11/02 04:21:29;;;;;;;13.27;2.17;;;;;;;11.85;80.14;101455.78;5092164;28;20058;-69
2022/11/02 04:26:39;;;;;;;9.00;1.83;;;;;;;11.80;80.99;101478.75;5092363;28;20391;-69
2022/11/02 04:29:05;;;;;;;8.70;1.65;;;;;;;11.77;81.03;101471.94;5091971;28;20032;-69
2022/11/02 04:31:31;;;;;;;7.57;1.98;;;;;;;11.73;81.43;101470.63;5091973;28;20028;-69
2022/11/02 04:33:59;;;;;;;8.93;2.50;;;;;;;11.75;81.30;101476.63;5073761;28;20407;-69
2022/11/02 04:36:27;;;;;;;10.27;2.63;;;;;;;11.79;81.10;101479.78;5091755;28;20039;-69
2022/11/02 04:38:52;;;;;;;5.45;1.50;;;;;;;11.83;81.12;101484.53;5091730;28;20032;-69
2022/11/02 04:44:14;;;;;;;10.30;2.55;;;;;;;11.92;80.85;101500.47;5078094;28;20514;-69
2022/11/02 04:46:41;;;;;;;9.40;2.53;;;;;;;11.92;80.91;101511.16;5091383;28;20050;-69
2022/11/02 04:49:07;;;;;;;9.80;2.42;;;;;;;11.94;80.68;101509.13;5091481;28;20024;-69
2022/11/02 04:51:33;;;;;;;8.65;2.60;;;;;;;11.92;80.95;101517.38;5091134;28;20122;-69
2022/11/02 04:53:59;;;;;;;6.57;1.52;;;;;;;11.90;80.78;101506.03;5091223;28;20119;-69
2022/11/02 04:56:26;;;;;;;9.95;2.05;;;;;;;11.79;80.96;101510.00;5091268;28;20482;-69
2022/11/02 04:58:53;;;;;;;7.85;1.60;;;;;;;11.78;80.92;101513.66;5090825;28;20042;-69
2022/11/02 05:01:20;;;;;;;14.82;4.03;;;;;;;11.79;81.46;101530.56;5091434;28;20024;-69
2022/11/02 05:03:47;;;;;;;10.40;2.00;;;;;;;11.79;81.34;101525.19;5091298;28;20024;-69
2022/11/02 05:06:13;;;;;;;16.63;3.00;;;;;;;11.74;81.42;101528.44;5090912;28;20102;-69
2022/11/02 05:08:39;;;;;;;12.02;1.88;;;;;;;11.72;81.11;101538.47;5091228;28;20451;-69
2022/11/02 05:11:05;;;;;;;12.60;2.42;;;;;;;11.71;81.13;101533.31;5091359;28;20030;-69
2022/11/02 05:13:31;;;;;;;9.80;2.80;;;;;;;11.70;81.16;101535.16;5091227;28;20925;-69
2022/11/02 05:15:57;;;;;;;11.48;2.35;;;;;;;11.67;81.51;101532.84;5091074;28;20082;-69
2022/11/02 05:18:23;;;;;;;12.40;3.38;;;;;;;11.68;81.16;101536.34;5090969;28;20471;-69
2022/11/02 05:20:54;;;;;;;10.07;1.85;;;;;;;11.73;81.28;101542.78;5091008;28;20024;-69
2022/11/02 05:23:21;;;;;;;9.50;2.40;;;;;;;11.77;81.10;101554.78;5090834;28;21033;-69
2022/11/02 05:25:53;;;;;;;7.43;1.92;;;;;;;11.79;81.13;101555.44;5091041;28;20034;-69
2022/11/02 05:28:19;;;;;;;9.88;2.33;;;;;;;11.78;80.91;101561.75;5090954;28;20031;-69
2022/11/02 05:30:44;;;;;;;15.52;1.73;;;;;;;11.75;80.92;101574.69;5090855;28;20028;-69
2022/11/02 05:33:09;;;;;;;14.70;3.50;;;;;;;11.75;80.79;101562.16;5090805;28;20153;-69
2022/11/02 05:35:35;;;;;;;6.90;2.13;;;;;;;11.67;80.55;101567.59;5089895;28;20565;-69
2022/11/02 05:38:01;;;;;;;13.02;2.50;;;;;;;11.72;80.90;101575.88;5090018;28;20434;-69
2022/11/02 05:40:26;;;;;;;7.82;2.75;;;;;;;11.69;81.26;101581.59;5071831;28;20055;-69
2022/11/02 05:42:58;;;;;;;9.20;2.97;;;;;;;11.73;80.64;101579.38;5071954;28;20134;-69
2022/11/02 05:45:23;;;;;;;;;;;;;;;11.78;80.76;101590.34;5090239;28;20382;-69
2022/11/02 05:47:48;;;;;;;5.27;1.87;;;;;;;11.78;80.37;101588.50;5089596;28;20014;-69
2022/11/02 05:50:13;;;;;;;5.25;1.80;;;;;;;11.79;80.07;101598.19;5089743;28;20036;-69
2022/11/02 05:52:39;;;;;;;8.63;2.47;;;;;;;11.75;80.28;101598.75;5089635;28;20024;-69
2022/11/02 05:55:05;;;;;;;9.40;2.55;;;;;;;11.76;80.30;101608.41;5089349;28;20086;-69
2022/11/02 05:57:30;;;;;;;11.73;3.28;;;;;;;11.75;80.29;101607.56;5089408;28;20024;-69
2022/11/02 05:59:55;;;;;;;7.10;1.42;;;;;;;11.71;80.99;101613.47;5089436;28;20063;-69
2022/11/02 06:02:21;;;;;;;8.65;1.55;;;;;;;11.63;80.50;101625.94;5088928;28;20060;-69
2022/11/02 06:04:46;;;;;;;6.25;3.08;;;;;;;11.57;80.80;101628.50;5089362;28;20097;-69
2022/11/02 06:07:11;;;;;;;7.25;1.95;;;;;;;11.50;80.69;101625.75;5089931;28;20031;-69
2022/11/02 06:09:37;;;;;;;14.20;3.28;;;;;;;11.45;80.88;101632.63;5088942;28;20032;-69
2022/11/02 06:12:02;;;;;;;6.32;2.47;;;;;;;11.41;81.23;101640.19;5088983;28;20104;-69
2022/11/02 06:14:27;;;;;;;1.95;1.05;;;;;;;11.37;81.87;101647.75;5089149;28;20112;-69
2022/11/02 06:16:53;;;;;;;6.40;1.67;;;;;;;11.30;81.96;101649.47;5089502;28;20024;-69
2022/11/02 06:19:18;;;;;;;8.80;2.05;;;;;;;11.25;81.84;101651.88;5089154;28;20091;-69
2022/11/02 06:21:43;;;;;;;5.40;1.88;;;;;;;11.22;82.25;101662.09;5089149;28;20081;-69
2022/11/02 06:24:09;;;;;;;6.15;1.73;;;;;;;11.19;82.74;101665.94;5089387;28;20032;-69
2022/11/02 06:26:34;;;;;;;5.70;1.40;;;;;;;11.15;82.50;101672.66;5089211;28;20027;-69
2022/11/02 06:29:00;;;;;;;7.05;1.35;;;;;;;11.09;83.02;101668.03;5089143;28;20374;-66
2022/11/02 06:31:25;;;;;;;6.80;1.48;;;;;;;11.00;83.06;101666.44;5089099;28;20042;-66
2022/11/02 06:33:50;;;;;;;9.32;1.75;;;;;;;11.02;83.35;101693.78;5070799;28;20067;-66
2022/11/02 06:36:16;;;;;;;7.93;1.95;;;;;;;11.00;83.33;101698.47;5088281;28;20038;-66
2022/11/02 06:38:41;;;;;;;11.18;2.78;;;;;;;10.97;83.74;101700.47;5088622;28;20039;-66
2022/11/02 06:41:06;;;;;;;6.70;2.90;;;;;;;10.93;84.31;101701.84;5088742;28;20035;-65
2022/11/02 06:43:33;;;;;;;5.35;1.70;;;;;;;10.89;84.36;101708.53;5088873;28;20062;-66
2022/11/02 06:45:58;;;;;;;8.30;2.13;;;;;;;10.86;84.67;101719.56;5088805;28;20344;-66
2022/11/02 06:48:25;;;;;;;9.45;3.28;;;;;;;10.82;85.23;101726.28;5088359;28;20042;-66
2022/11/02 06:50:51;;;;;;;7.22;2.03;;;;;;;10.82;85.02;101739.63;5070829;28;20134;-66
2022/11/02 06:53:17;;;;;;;9.98;1.60;;;;;;;10.80;85.23;101744.31;5088302;28;20128;-66
2022/11/02 06:55:42;;;;;;;10.50;2.75;;;;;;;10.78;85.29;101743.66;5087678;28;20051;-66
2022/11/02 06:58:08;;;;;;;10.50;1.30;;;;;;;10.78;85.69;101754.31;5088003;28;20051;-66
2022/11/02 07:00:33;;;;;;;7.95;1.55;;;;;;;10.80;85.61;101756.81;5088584;28;20040;-66
2022/11/02 07:03:08;;;;;;;9.85;3.15;;;;;;;10.81;85.25;101764.63;5088619;28;20051;-66
2022/11/02 07:05:34;;;;;;;7.68;1.48;;;;;;;10.85;85.06;101773.16;5088507;28;20661;-66
2022/11/02 07:07:59;;;;;;;12.25;3.00;;;;;;;10.73;85.18;101762.03;5088651;28;20451;-66
2022/11/02 07:10:25;;;;;;;4.50;1.13;;;;;;;10.80;85.61;101776.31;5087920;28;20114;-66
2022/11/02 07:12:53;;;;;;;4.82;1.23;;;;;;;10.75;85.65;101782.19;5088425;28;20036;-66
2022/11/02 07:15:19;;;;;;;5.18;1.80;;;;;;;10.82;85.24;101797.47;5088585;28;20584;-67
2022/11/02 07:17:44;;;;;;;8.57;2.40;;;;;;;10.83;85.13;101800.00;5069703;28;20046;-66
2022/11/02 07:20:10;;;;;;;8.23;1.27;;;;;;;10.85;85.25;101813.16;5069160;28;20028;-66
2022/11/02 07:22:36;;;;;;;8.27;1.40;;;;;;;10.80;85.36;101803.00;5071668;28;20060;-66
2022/11/02 07:25:02;;;;;;;7.07;2.42;;;;;;;10.85;85.21;101816.66;5073119;28;20472;-66
2022/11/02 07:27:27;;;;;;;10.82;1.90;;;;;;;10.96;84.72;101818.94;5073017;28;20090;-66
2022/11/02 07:29:52;;;;;;;9.45;2.58;;;;;;;11.04;84.76;101833.25;5073162;28;20559;-66
2022/11/02 07:32:18;;;;;;;9.15;2.20;;;;;;;11.09;84.30;101821.03;5072922;28;20032;-66
2022/11/02 07:34:43;;;;;;;14.43;1.67;;;;;;;11.12;84.01;101827.84;5083934;28;20044;-66
2022/11/02 07:37:08;;;;;;;8.95;2.50;;;;;;;11.19;83.76;101834.16;5092565;28;20072;-66
2022/11/02 07:39:34;;;;;;;9.73;2.45;;;;;;;11.27;83.22;101834.09;5092681;28;20020;-66
2022/11/02 07:41:59;;;;;;;7.60;1.98;;;;;;;11.28;83.26;101832.25;5092366;28;20024;-65
2022/11/02 07:44:24;;;;;;;9.70;1.40;;;;;;;11.30;83.41;101838.28;5092685;28;20697;-65
2022/11/02 07:46:50;;;;;;;13.10;2.40;;;;;;;11.34;83.60;101840.41;5092122;28;20032;-66
2022/11/02 07:49:15;;;;;;;13.77;2.53;;;;;;;11.37;83.28;101844.53;5092570;28;20024;-65
2022/11/02 07:51:40;;;;;;;4.82;1.30;;;;;;;11.38;83.29;101843.56;5091906;28;20070;-65
2022/11/02 07:54:06;;;;;;;5.63;1.20;;;;;;;11.36;83.06;101850.91;5092131;28;20032;-66
2022/11/02 07:56:31;;;;;;;13.43;2.25;;;;;;;11.37;83.88;101860.56;5091457;28;20044;-65
2022/11/02 07:58:56;;;;;;;11.10;2.83;;;;;;;11.37;83.53;101856.09;5091846;28;20153;-66
2022/11/02 08:01:22;;;;;;;7.68;1.33;;;;;;;11.38;83.87;101859.56;5092405;28;20491;-67
2022/11/02 08:03:48;;;;;;;7.65;1.70;;;;;;;11.42;83.16;101866.22;5092295;28;20036;-65
2022/11/02 08:06:13;;;;;;;5.88;1.20;;;;;;;11.43;83.60;101867.06;5092168;28;20039;-67
2022/11/02 08:08:38;;;;;;;4.15;1.75;;;;;;;11.43;83.44;101869.75;5092059;28;20035;-67
2022/11/02 08:11:06;;;;;;;11.75;2.85;;;;;;;11.47;83.04;101868.34;5092230;28;20031;-67
2022/11/02 08:13:32;;;;;;;8.93;1.45;;;;;;;11.46;83.67;101862.19;5091601;28;20032;-67
2022/11/02 08:15:57;;;;;;;6.70;1.98;;;;;;;11.60;83.36;101872.09;5091757;28;20024;-67
2022/11/02 08:18:24;;;;;;;6.75;2.15;;;;;;;11.61;83.61;101879.13;5091798;28;20589;-68
2022/11/02 08:20:51;;;;;;;6.82;1.85;;;;;;;11.66;83.29;101875.91;5091223;28;20612;-69
2022/11/02 08:23:18;;;;;;;6.05;1.23;;;;;;;11.72;83.22;101888.56;5091448;28;20553;-69
2022/11/02 08:25:45;;;;;;;5.80;1.65;;;;;;;11.75;82.96;101890.03;5091829;28;20027;-67
2022/11/02 08:28:17;;;;;;;9.63;1.98;;;;;;;11.77;82.81;101894.19;5091298;28;20118;-67
2022/11/02 08:30:42;;;;;;;9.07;1.70;;;;;;;11.80;83.21;101871.63;5091840;28;20184;-67
2022/11/02 08:33:12;;;;;;;9.45;2.75;;;;;;;11.91;82.49;101889.94;5090546;28;20147;-67
2022/11/02 08:35:38;;;;;;;9.20;1.85;;;;;;;11.93;81.93;101884.41;5091474;28;20055;-68
2022/11/02 08:38:04;;;;;;;6.38;1.35;;;;;;;11.99;81.96;101886.38;5091558;28;20032;-69
2022/11/02 08:40:29;;;;;;;12.25;3.40;;;;;;;12.05;81.78;101888.31;5091361;28;20051;-67
2022/11/02 08:43:00;;;;;;;10.13;2.42;;;;;;;12.05;80.95;101891.84;5073127;28;20034;-67
2022/11/02 08:45:27;;;;;;;8.10;2.00;;;;;;;12.12;80.88;101912.50;5091427;28;20510;-67
2022/11/02 08:47:52;;;;;;;12.38;2.55;;;;;;;12.16;80.95;101911.97;5091617;28;20032;-68
2022/11/02 08:50:18;;;;;;;11.15;2.00;;;;;;;12.20;81.04;101909.75;5091226;28;20048;-68
2022/11/02 08:52:43;;;;;;;7.03;1.50;;;;;;;12.27;80.41;101924.88;5091285;28;20046;-66
2022/11/02 08:55:09;;;;;;;8.45;1.50;;;;;;;12.29;79.64;101919.38;5090990;28;20054;-67
2022/11/02 08:57:52;;;;;;;8.38;1.65;;;;;;;12.31;80.71;101924.53;5091417;28;20379;-67
2022/11/02 09:00:20;;;;;;;15.65;2.88;;;;;;;12.33;80.28;101928.69;5090383;28;20502;-68
2022/11/02 09:02:58;;;;;;;13.55;1.73;;;;;;;12.40;80.73;101931.47;5090865;28;20020;-70
2022/11/02 09:05:23;;;;;;;11.55;3.13;;;;;;;12.41;79.35;101923.25;5091231;28;20031;-70
2022/11/02 09:07:56;;;;;;;12.93;2.40;;;;;;;12.46;78.86;101933.41;5072864;28;20047;-78
2022/11/02 09:10:22;;;;;;;11.10;1.77;;;;;;;12.55;78.81;101926.97;5090801;28;20033;-70
2022/11/02 09:12:47;;;;;;;10.27;2.53;;;;;;;12.53;77.56;101909.44;5072737;28;20031;-72
2022/11/02 09:15:12;;;;;;;12.77;2.25;;;;;;;12.64;78.01;101923.19;5090660;28;20032;-70
2022/11/02 09:17:38;;;;;;;10.20;2.35;;;;;;;12.70;77.20;101926.97;5090714;28;20447;-71
2022/11/02 09:20:03;;;;;;;5.78;1.27;;;;;;;12.73;75.72;101923.91;5090587;28;20042;-70
2022/11/02 09:22:29;;;;;;;9.30;1.63;;;;;;;12.74;75.78;101928.28;5090491;28;20127;-70
2022/11/02 09:24:54;;;;;;;6.35;1.42;;;;;;;12.83;76.17;101943.22;5072709;28;20032;-71
2022/11/02 09:27:20;;;;;;;12.73;2.90;;;;;;;12.82;75.65;101935.38;5090548;28;20375;-70
2022/11/02 09:29:45;;;;;;;6.25;1.55;;;;;;;12.90;75.87;101946.00;5090105;28;20028;-71
2022/11/02 09:32:10;;;;;;;7.07;1.83;;;;;;;12.82;75.67;101928.16;5090246;28;20101;-71
2022/11/02 09:34:36;;;;;;;5.57;1.65;;;;;;;12.94;75.74;101942.75;5090320;28;20047;-71
2022/11/02 09:37:01;;;;;;;10.63;1.55;;;;;;;12.93;75.93;101941.09;5090241;28;20040;-73
2022/11/02 09:39:26;;;;;;;10.63;2.03;;;;;;;12.99;75.86;101938.69;5090437;28;20024;-73
2022/11/02 09:42:17;;;;;;;7.32;2.20;;;;;;;13.00;75.58;101949.22;5090531;28;20027;-74
2022/11/02 09:44:57;;;;;;;8.43;2.22;;;;;;;13.06;74.85;101950.31;5090405;28;20032;-69
2022/11/02 09:47:25;;;;;;;13.57;2.60;;;;;;;13.07;75.06;101947.47;5090195;28;20016;-74
2022/11/02 09:49:52;;;;;;;15.75;2.85;;;;;;;13.14;74.83;101956.41;5089753;28;20032;-80
2022/11/02 09:52:27;;;;;;;8.30;2.00;;;;;;;13.17;75.25;101947.16;5090335;28;20036;-69
2022/11/02 09:54:54;;;;;;;7.85;2.35;;;;;;;13.27;74.47;101968.34;5089575;28;20031;-75
2022/11/02 09:57:29;;;;;;;17.98;3.78;;;;;;;13.27;74.51;101961.13;5089919;28;20386;-71
2022/11/02 09:59:55;;;;;;;11.85;2.25;;;;;;;13.22;74.41;101954.66;5090143;28;20123;-71
2022/11/02 10:02:47;;;;;;;9.80;2.25;;;;;;;13.22;74.98;101966.19;5089908;28;20032;-73
2022/11/02 10:05:44;;;;;;;16.98;2.80;;;;;;;13.12;73.64;101961.09;5089953;28;20103;-71
2022/11/02 10:08:14;;;;;;;12.20;1.77;;;;;;;13.19;74.27;101971.91;5089855;28;20481;-71
2022/11/02 10:10:46;;;;;;;4.65;1.40;;;;;;;13.18;74.57;101972.09;5089927;28;20032;-71
2022/11/02 10:13:52;;;;;;;8.85;2.90;;;;;;;13.09;74.47;101971.38;5089539;28;20536;-71
2022/11/02 10:16:23;;;;;;;10.68;2.28;;;;;;;12.98;74.21;101978.03;5054472;28;20052;-71
2022/11/02 10:18:52;;;;;;;15.02;2.13;;;;;;;13.10;73.67;101973.88;5089665;28;20035;-72
2022/11/02 10:21:27;;;;;;;6.25;2.08;;;;;;;13.29;74.37;101985.91;5089526;28;20038;-71
2022/11/02 10:23:54;;;;;;;9.68;1.88;;;;;;;13.40;73.94;101989.94;5087885;28;20028;-71
2022/11/02 10:26:24;;;;;;;11.05;2.47;;;;;;;13.57;74.19;101993.22;5089455;28;20031;-71
2022/11/02 10:28:58;;;;;;;7.53;2.00;;;;;;;13.66;73.77;101999.31;5089552;28;20095;-71
2022/11/02 10:31:30;;;;;;;9.90;2.47;;;;;;;13.74;72.29;101991.16;5089790;28;20016;-71
2022/11/02 10:33:58;;;;;;;7.68;1.90;;;;;;;13.71;72.10;102008.47;5089164;28;20407;-71
2022/11/02 10:36:54;;;;;;;7.40;1.90;;;;;;;13.67;70.70;101995.63;5089378;28;20467;-69
2022/11/02 10:39:54;;;;;;;14.68;3.80;;;;;;;13.69;71.68;101985.53;5076262;28;20077;-72
2022/11/02 10:42:39;;;;;;;7.82;1.83;;;;;;;13.77;70.63;101980.06;5062266;28;21006;-72
2022/11/02 10:45:13;;;;;;;12.63;2.60;;;;;;;13.83;71.46;101992.69;5077244;28;20028;-72
2022/11/02 10:47:55;;;;;;;7.70;1.92;;;;;;;13.83;68.85;101992.69;5076699;28;20034;-73
2022/11/02 10:50:23;;;;;;;7.75;2.05;;;;;;;13.78;68.51;101995.97;5077517;28;20069;-71
2022/11/02 10:52:48;;;;;;;11.65;2.10;;;;;;;13.72;68.30;101998.56;5076804;28;20039;-73
2022/11/02 10:55:24;;;;;;;12.32;3.33;;;;;;;13.61;68.24;102005.25;5076887;28;20027;-71
2022/11/02 10:57:53;;;;;;;6.45;1.63;;;;;;;13.59;69.88;102008.09;5077287;28;20016;-71
2022/11/02 11:00:46;;;;;;;7.95;2.53;;;;;;;13.66;69.47;102015.41;5089280;28;20118;-71
2022/11/02 11:03:13;;;;;;;10.70;2.60;;;;;;;13.72;68.32;102018.16;5085054;28;20456;-71
2022/11/02 11:05:58;;;;;;;14.88;4.10;;;;;;;13.78;69.20;102016.56;5088813;28;20071;-72
2022/11/02 11:08:43;;;;;;;8.73;1.52;;;;;;;13.82;68.38;102018.69;5088721;28;20035;-71
2022/11/02 11:11:20;;;;;;;11.40;1.73;;;;;;;13.81;67.63;102009.00;5088668;28;20421;-71
2022/11/02 11:14:12;;;;;;;6.05;1.42;;;;;;;13.88;68.19;102010.91;5088755;28;20074;-67
2022/11/02 11:16:42;;;;;;;13.45;1.83;;;;;;;13.88;67.15;102019.78;5085445;28;20123;-67
2022/11/02 11:19:26;;;;;;;8.68;2.05;;;;;;;13.97;67.27;102013.28;5089237;28;20108;-67
2022/11/02 11:21:52;;;;;;;13.60;2.85;;;;;;;13.99;65.63;102008.56;5088660;28;20044;-66
2022/11/02 11:24:24;;;;;;;9.98;1.95;;;;;;;13.99;65.83;102011.25;5088345;28;20383;-67
2022/11/02 11:27:03;;;;;;;10.02;3.70;;;;;;;13.94;66.64;102013.66;5088953;28;20055;-67
2022/11/02 11:29:34;;;;;;;11.38;1.52;;;;;;;13.95;65.84;102017.19;5088854;28;20020;-67
2022/11/02 11:32:01;;;;;;;10.27;2.42;;;;;;;14.04;65.79;102021.38;5088780;28;20088;-67
2022/11/02 11:34:30;;;;;;;7.57;1.25;;;;;;;14.15;65.93;102010.16;5070632;28;20102;-67
2022/11/02 11:37:09;;;;;;;9.02;2.30;;;;;;;14.18;65.25;102006.28;5084099;28;20416;-67
2022/11/02 11:39:37;;;;;;;8.75;1.80;;;;;;;14.24;66.05;101997.44;5104266;28;20023;-67
2022/11/02 11:42:04;;;;;;;12.23;1.83;;;;;;;14.35;63.76;101998.75;5109003;28;20029;-67
2022/11/02 11:44:30;;;;;;;10.43;2.85;;;;;;;14.36;64.05;101998.59;5108819;28;20031;-67
2022/11/02 11:46:57;;;;;;;7.40;1.70;;;;;;;14.43;62.93;101987.88;5090250;28;20032;-67
2022/11/02 11:49:30;;;;;;;8.77;1.20;;;;;;;14.50;64.32;101996.00;5108523;28;20035;-67